Eizo Maru — JD2944 — position and weather

sailwx.info

Track history (hours):
 
Tides and Currents Weather Stations Pressure Air Temp Water Temp Dewpoint Dewpoint Depression Visibility Wind Speed Wind Dir Waves Ship Positions

Eizo Maru

Last reported at 2017-Aug-16 10:01 UTC. Time now 2017-Aug-20 08:03 UTC.
Position N 34°07' E 135°03'.

Length 80 m; draft 5.3 m.

Type: Tanker. MMSI: 431000976.

Date/timePositionNaut miles runAvg speedWind from/ knotsBaromVisibWave heightAir tempDewpointWater temp
2017-Aug-16 10:01N 34°07' E 135°03'012.3
2017-Aug-16 09:59N 34°07' E 135°03'4 0.5
2017-Aug-16 03:34N 34°07' E 135°08'0 2.8
2017-Aug-16 03:26N 34°07' E 135°07'4 9.7
2017-Aug-16 02:59N 34°05' E 135°03'21010.7
2017-Aug-15 07:19N 34°53' E 139°11'2113.6
2017-Aug-15 05:46N 35°03' E 139°34'413.2
2017-Aug-15 05:30N 35°05' E 139°37'713.3
2017-Aug-15 05:00N 35°09' E 139°43'613.0
2017-Aug-15 04:30N 35°15' E 139°46'611.9
2017-Aug-15 04:00N 35°20' E 139°42'5 9.5
2017-Aug-15 03:30N 35°24' E 139°40'0 0.1
2017-Aug-15 02:58N 35°24' E 139°40'0 0.0
2017-Aug-15 02:28N 35°24' E 139°40'0 0.0
2017-Aug-15 01:58N 35°24' E 139°40'0 0.0
2017-Aug-15 01:28N 35°24' E 139°40'0 0.0
2017-Aug-15 00:58N 35°24' E 139°40'0 0.0
2017-Aug-15 00:28N 35°24' E 139°40'0 0.0
2017-Aug-14 23:58N 35°24' E 139°40'0 0.0
2017-Aug-14 23:30N 35°24' E 139°40'1 2.2
2017-Aug-14 23:00N 35°23' E 139°40'1 1.7
2017-Aug-14 22:30N 35°23' E 139°41'0 0.0
2017-Aug-14 22:00N 35°23' E 139°41'0 0.0
2017-Aug-14 21:30N 35°23' E 139°41'0 0.0
2017-Aug-14 21:00N 35°23' E 139°41'0 0.1
2017-Aug-14 20:30N 35°23' E 139°41'510.5
2017-Aug-14 20:00N 35°18' E 139°44'611.6
2017-Aug-14 19:30N 35°13' E 139°47'612.4
2017-Aug-14 19:00N 35°07' E 139°46'612.4
2017-Aug-14 18:30N 35°02' E 139°40'713.1
2017-Aug-14 17:58N 34°58' E 139°34'  
2017-Aug-10 08:28N 35°03' E 139°32'613.8
2017-Aug-10 08:00N 35°06' E 139°39'713.0
2017-Aug-10 07:30N 35°10' E 139°44'611.9
2017-Aug-10 07:00N 35°16' E 139°45'612.2
2017-Aug-10 06:31N 35°22' E 139°42'612.9
2017-Aug-10 06:00N 35°27' E 139°46'713.9
2017-Aug-10 05:30N 35°31' E 139°53'6 7.0
2017-Aug-10 04:37N 35°33' E 140°01'1 5.0
2017-Aug-10 04:26N 35°33' E 140°02'1 0.0
2017-Aug-09 03:48N 35°34' E 140°02'410.2
2017-Aug-09 03:27N 35°32' E 139°59'0 0.0
2017-Aug-08 18:50N 35°32' E 139°59'0 0.0
2017-Aug-08 14:20N 35°32' E 139°59'0 0.0
2017-Aug-08 12:47N 35°32' E 139°59'1 0.1
2017-Aug-08 05:11N 35°31' E 139°58'0 0.0
2017-Aug-08 01:47N 35°31' E 139°58'0 0.0
2017-Aug-07 07:22N 35°31' E 139°58'0 0.0
2017-Aug-07 06:58N 35°31' E 139°58'  
Track history (hours):
 
Tides and Currents Weather Stations Pressure Air Temp Water Temp Dewpoint Dewpoint Depression Visibility Wind Speed Wind Dir Waves Ship Positions

Eizo Maru

Last reported at 2017-Aug-16 10:01 UTC. Time now 2017-Aug-20 08:03 UTC.
Position N 34°07' E 135°03'.

Length 80 m; draft 5.3 m.

Type: Tanker. MMSI: 431000976.

Date/timePositionNaut miles runAvg speedWind from/ knotsBaromVisibWave heightAir tempDewpointWater temp
2017-Aug-16 10:01N 34°07' E 135°03'012.3
2017-Aug-16 09:59N 34°07' E 135°03'4 0.5
2017-Aug-16 03:34N 34°07' E 135°08'0 2.8
2017-Aug-16 03:26N 34°07' E 135°07'4 9.7
2017-Aug-16 02:59N 34°05' E 135°03'21010.7
2017-Aug-15 07:19N 34°53' E 139°11'2113.6
2017-Aug-15 05:46N 35°03' E 139°34'413.2
2017-Aug-15 05:30N 35°05' E 139°37'713.3
2017-Aug-15 05:00N 35°09' E 139°43'613.0
2017-Aug-15 04:30N 35°15' E 139°46'611.9
2017-Aug-15 04:00N 35°20' E 139°42'5 9.5
2017-Aug-15 03:30N 35°24' E 139°40'0 0.1
2017-Aug-15 02:58N 35°24' E 139°40'0 0.0
2017-Aug-15 02:28N 35°24' E 139°40'0 0.0
2017-Aug-15 01:58N 35°24' E 139°40'0 0.0
2017-Aug-15 01:28N 35°24' E 139°40'0 0.0
2017-Aug-15 00:58N 35°24' E 139°40'0 0.0
2017-Aug-15 00:28N 35°24' E 139°40'0 0.0
2017-Aug-14 23:58N 35°24' E 139°40'0 0.0
2017-Aug-14 23:30N 35°24' E 139°40'1 2.2
2017-Aug-14 23:00N 35°23' E 139°40'1 1.7
2017-Aug-14 22:30N 35°23' E 139°41'0 0.0
2017-Aug-14 22:00N 35°23' E 139°41'0 0.0
2017-Aug-14 21:30N 35°23' E 139°41'0 0.0
2017-Aug-14 21:00N 35°23' E 139°41'0 0.1
2017-Aug-14 20:30N 35°23' E 139°41'510.5
2017-Aug-14 20:00N 35°18' E 139°44'611.6
2017-Aug-14 19:30N 35°13' E 139°47'612.4
2017-Aug-14 19:00N 35°07' E 139°46'612.4
2017-Aug-14 18:30N 35°02' E 139°40'713.1
2017-Aug-14 17:58N 34°58' E 139°34'  
2017-Aug-10 08:28N 35°03' E 139°32'613.8
2017-Aug-10 08:00N 35°06' E 139°39'713.0
2017-Aug-10 07:30N 35°10' E 139°44'611.9
2017-Aug-10 07:00N 35°16' E 139°45'612.2
2017-Aug-10 06:31N 35°22' E 139°42'612.9
2017-Aug-10 06:00N 35°27' E 139°46'713.9
2017-Aug-10 05:30N 35°31' E 139°53'6 7.0
2017-Aug-10 04:37N 35°33' E 140°01'1 5.0
2017-Aug-10 04:26N 35°33' E 140°02'1 0.0
2017-Aug-09 03:48N 35°34' E 140°02'410.2
2017-Aug-09 03:27N 35°32' E 139°59'0 0.0
2017-Aug-08 18:50N 35°32' E 139°59'0 0.0
2017-Aug-08 14:20N 35°32' E 139°59'0 0.0
2017-Aug-08 12:47N 35°32' E 139°59'1 0.1
2017-Aug-08 05:11N 35°31' E 139°58'0 0.0
2017-Aug-08 01:47N 35°31' E 139°58'0 0.0
2017-Aug-07 07:22N 35°31' E 139°58'0 0.0
2017-Aug-07 06:58N 35°31' E 139°58'  

Dump ship's entire track history